sensor_id;sensor_type;location;lat;lon;timestamp;temperature;humidity
3770;DHT22;1900;48.890;9.190;2023-04-24T00:00:09;17.70;52.30
3770;DHT22;1900;48.890;9.190;2023-04-24T00:02:35;17.70;52.30
3770;DHT22;1900;48.890;9.190;2023-04-24T00:05:07;17.60;52.20
3770;DHT22;1900;48.890;9.190;2023-04-24T00:07:34;17.70;52.30
3770;DHT22;1900;48.890;9.190;2023-04-24T00:09:59;17.60;52.20
3770;DHT22;1900;48.890;9.190;2023-04-24T00:12:25;17.70;52.40
3770;DHT22;1900;48.890;9.190;2023-04-24T00:14:52;17.70;52.40
3770;DHT22;1900;48.890;9.190;2023-04-24T00:17:18;17.70;52.40
3770;DHT22;1900;48.890;9.190;2023-04-24T00:19:47;17.70;52.40
3770;DHT22;1900;48.890;9.190;2023-04-24T00:22:13;17.70;52.50
3770;DHT22;1900;48.890;9.190;2023-04-24T00:24:40;17.70;52.50
3770;DHT22;1900;48.890;9.190;2023-04-24T00:27:06;17.70;52.50
3770;DHT22;1900;48.890;9.190;2023-04-24T00:29:31;17.70;52.50
3770;DHT22;1900;48.890;9.190;2023-04-24T00:31:57;17.70;52.50
3770;DHT22;1900;48.890;9.190;2023-04-24T00:34:23;17.80;52.50
3770;DHT22;1900;48.890;9.190;2023-04-24T00:36:49;17.80;52.50
3770;DHT22;1900;48.890;9.190;2023-04-24T00:39:21;17.80;52.50
3770;DHT22;1900;48.890;9.190;2023-04-24T00:41:48;17.80;52.50
3770;DHT22;1900;48.890;9.190;2023-04-24T00:44:14;17.70;52.40
3770;DHT22;1900;48.890;9.190;2023-04-24T00:46:40;17.70;52.40
3770;DHT22;1900;48.890;9.190;2023-04-24T00:49:06;17.70;52.40
3770;DHT22;1900;48.890;9.190;2023-04-24T00:51:32;17.80;52.50
3770;DHT22;1900;48.890;9.190;2023-04-24T00:53:59;17.70;52.40
3770;DHT22;1900;48.890;9.190;2023-04-24T00:56:25;17.70;52.40
3770;DHT22;1900;48.890;9.190;2023-04-24T00:58:51;17.70;52.40
3770;DHT22;1900;48.890;9.190;2023-04-24T01:01:18;17.70;52.40
3770;DHT22;1900;48.890;9.190;2023-04-24T01:03:46;17.70;52.40
3770;DHT22;1900;48.890;9.190;2023-04-24T01:06:13;17.70;52.40
3770;DHT22;1900;48.890;9.190;2023-04-24T01:08:40;17.70;52.40
3770;DHT22;1900;48.890;9.190;2023-04-24T01:11:06;17.70;52.40
3770;DHT22;1900;48.890;9.190;2023-04-24T01:13:32;17.70;52.50
3770;DHT22;1900;48.890;9.190;2023-04-24T01:15:58;17.70;52.40
3770;DHT22;1900;48.890;9.190;2023-04-24T01:18:27;17.60;52.30
3770;DHT22;1900;48.890;9.190;2023-04-24T01:20:55;17.60;52.30
3770;DHT22;1900;48.890;9.190;2023-04-24T01:23:23;17.60;52.40
3770;DHT22;1900;48.890;9.190;2023-04-24T01:25:50;17.60;52.30
3770;DHT22;1900;48.890;9.190;2023-04-24T01:28:18;17.60;52.30
3770;DHT22;1900;48.890;9.190;2023-04-24T01:30:43;17.60;52.40
3770;DHT22;1900;48.890;9.190;2023-04-24T01:33:09;17.60;52.40
3770;DHT22;1900;48.890;9.190;2023-04-24T01:35:36;17.60;52.40
3770;DHT22;1900;48.890;9.190;2023-04-24T01:38:03;17.60;52.40
3770;DHT22;1900;48.890;9.190;2023-04-24T01:40:28;17.50;52.30
3770;DHT22;1900;48.890;9.190;2023-04-24T01:42:58;17.50;52.30
3770;DHT22;1900;48.890;9.190;2023-04-24T01:45:24;17.60;52.40
3770;DHT22;1900;48.890;9.190;2023-04-24T01:47:50;17.60;52.40
3770;DHT22;1900;48.890;9.190;2023-04-24T01:50:17;17.50;52.30
3770;DHT22;1900;48.890;9.190;2023-04-24T01:52:43;17.40;52.20
3770;DHT22;1900;48.890;9.190;2023-04-24T01:55:09;17.40;52.30
3770;DHT22;1900;48.890;9.190;2023-04-24T01:57:35;17.40;52.30
3770;DHT22;1900;48.890;9.190;2023-04-24T02:00:02;17.40;52.30
3770;DHT22;1900;48.890;9.190;2023-04-24T02:02:39;17.40;52.40
3770;DHT22;1900;48.890;9.190;2023-04-24T02:05:07;17.40;52.30
3770;DHT22;1900;48.890;9.190;2023-04-24T02:07:35;17.40;52.30
3770;DHT22;1900;48.890;9.190;2023-04-24T02:10:02;17.30;52.30
3770;DHT22;1900;48.890;9.190;2023-04-24T02:12:29;17.30;52.30
3770;DHT22;1900;48.890;9.190;2023-04-24T02:14:55;17.40;52.40
3770;DHT22;1900;48.890;9.190;2023-04-24T02:17:21;17.30;52.30
3770;DHT22;1900;48.890;9.190;2023-04-24T02:19:47;17.30;52.30
3770;DHT22;1900;48.890;9.190;2023-04-24T02:22:12;17.30;52.30
3770;DHT22;1900;48.890;9.190;2023-04-24T02:24:38;17.30;52.30
3770;DHT22;1900;48.890;9.190;2023-04-24T02:27:05;17.30;52.30
3770;DHT22;1900;48.890;9.190;2023-04-24T02:29:31;17.30;52.40
3770;DHT22;1900;48.890;9.190;2023-04-24T02:31:57;17.30;52.40
3770;DHT22;1900;48.890;9.190;2023-04-24T02:34:23;17.30;52.40
3770;DHT22;1900;48.890;9.190;2023-04-24T02:36:49;17.20;52.30
3770;DHT22;1900;48.890;9.190;2023-04-24T02:39:15;17.20;52.40
3770;DHT22;1900;48.890;9.190;2023-04-24T02:41:44;17.20;52.40
3770;DHT22;1900;48.890;9.190;2023-04-24T02:44:10;17.20;52.50
3770;DHT22;1900;48.890;9.190;2023-04-24T02:46:36;17.20;52.50
3770;DHT22;1900;48.890;9.190;2023-04-24T02:49:01;17.20;52.60
3770;DHT22;1900;48.890;9.190;2023-04-24T02:51:28;17.20;52.60
3770;DHT22;1900;48.890;9.190;2023-04-24T02:53:54;17.10;52.50
3770;DHT22;1900;48.890;9.190;2023-04-24T02:56:19;17.20;52.60
3770;DHT22;1900;48.890;9.190;2023-04-24T02:58:45;17.10;52.60
3770;DHT22;1900;48.890;9.190;2023-04-24T03:01:11;17.10;52.60
3770;DHT22;1900;48.890;9.190;2023-04-24T03:03:38;17.10;52.50
3770;DHT22;1900;48.890;9.190;2023-04-24T03:06:04;17.10;52.60
3770;DHT22;1900;48.890;9.190;2023-04-24T03:08:32;17.10;52.60
3770;DHT22;1900;48.890;9.190;2023-04-24T03:10:57;17.10;52.70
3770;DHT22;1900;48.890;9.190;2023-04-24T03:13:23;17.10;52.70
3770;DHT22;1900;48.890;9.190;2023-04-24T03:15:49;17.10;53.40
3770;DHT22;1900;48.890;9.190;2023-04-24T03:18:15;17.10;52.80
3770;DHT22;1900;48.890;9.190;2023-04-24T03:20:41;17.00;52.70
3770;DHT22;1900;48.890;9.190;2023-04-24T03:23:07;17.00;52.70
3770;DHT22;1900;48.890;9.190;2023-04-24T03:25:33;17.00;52.70
3770;DHT22;1900;48.890;9.190;2023-04-24T03:27:58;17.00;52.70
3770;DHT22;1900;48.890;9.190;2023-04-24T03:30:43;17.00;52.70
3770;DHT22;1900;48.890;9.190;2023-04-24T03:33:09;17.00;52.70
3770;DHT22;1900;48.890;9.190;2023-04-24T03:35:40;16.90;52.70
3770;DHT22;1900;48.890;9.190;2023-04-24T03:38:09;17.00;52.70
3770;DHT22;1900;48.890;9.190;2023-04-24T03:40:43;16.90;52.70
3770;DHT22;1900;48.890;9.190;2023-04-24T03:43:27;16.90;52.70
3770;DHT22;1900;48.890;9.190;2023-04-24T03:45:55;16.90;52.80
3770;DHT22;1900;48.890;9.190;2023-04-24T03:48:20;16.90;52.80
3770;DHT22;1900;48.890;9.190;2023-04-24T03:50:46;16.90;52.80
3770;DHT22;1900;48.890;9.190;2023-04-24T03:53:12;16.90;52.80
3770;DHT22;1900;48.890;9.190;2023-04-24T03:55:40;16.90;52.80
3770;DHT22;1900;48.890;9.190;2023-04-24T03:58:06;16.90;52.80
3770;DHT22;1900;48.890;9.190;2023-04-24T04:00:31;16.80;52.80
3770;DHT22;1900;48.890;9.190;2023-04-24T04:03:17;16.80;52.80
3770;DHT22;1900;48.890;9.190;2023-04-24T04:05:43;16.80;52.80
3770;DHT22;1900;48.890;9.190;2023-04-24T04:08:09;16.80;52.90
3770;DHT22;1900;48.890;9.190;2023-04-24T04:10:34;16.80;52.80
3770;DHT22;1900;48.890;9.190;2023-04-24T04:13:03;16.80;52.90
3770;DHT22;1900;48.890;9.190;2023-04-24T04:15:29;16.80;53.00
3770;DHT22;1900;48.890;9.190;2023-04-24T04:17:55;16.80;53.00
3770;DHT22;1900;48.890;9.190;2023-04-24T04:20:21;16.80;53.00
3770;DHT22;1900;48.890;9.190;2023-04-24T04:22:47;16.80;53.10
3770;DHT22;1900;48.890;9.190;2023-04-24T04:25:17;16.80;53.10
3770;DHT22;1900;48.890;9.190;2023-04-24T04:27:46;16.80;53.20
3770;DHT22;1900;48.890;9.190;2023-04-24T04:30:13;16.90;53.30
3770;DHT22;1900;48.890;9.190;2023-04-24T04:32:47;16.90;53.20
3770;DHT22;1900;48.890;9.190;2023-04-24T04:35:13;16.90;53.20
3770;DHT22;1900;48.890;9.190;2023-04-24T04:37:39;16.80;53.00
3770;DHT22;1900;48.890;9.190;2023-04-24T04:40:27;16.80;53.00
3770;DHT22;1900;48.890;9.190;2023-04-24T04:42:59;16.80;53.00
3770;DHT22;1900;48.890;9.190;2023-04-24T04:45:27;16.70;53.00
3770;DHT22;1900;48.890;9.190;2023-04-24T04:48:23;16.70;53.10
3770;DHT22;1900;48.890;9.190;2023-04-24T04:50:49;16.80;53.20
3770;DHT22;1900;48.890;9.190;2023-04-24T04:53:15;16.70;53.10
3770;DHT22;1900;48.890;9.190;2023-04-24T04:55:41;16.70;53.00
3770;DHT22;1900;48.890;9.190;2023-04-24T04:58:10;16.70;53.00
3770;DHT22;1900;48.890;9.190;2023-04-24T05:00:36;16.70;53.10
3770;DHT22;1900;48.890;9.190;2023-04-24T05:03:11;16.70;53.00
3770;DHT22;1900;48.890;9.190;2023-04-24T05:05:37;16.70;53.10
3770;DHT22;1900;48.890;9.190;2023-04-24T05:08:08;16.60;53.00
3770;DHT22;1900;48.890;9.190;2023-04-24T05:10:34;16.60;53.00
3770;DHT22;1900;48.890;9.190;2023-04-24T05:13:03;16.60;53.00
3770;DHT22;1900;48.890;9.190;2023-04-24T05:15:29;16.50;52.90
3770;DHT22;1900;48.890;9.190;2023-04-24T05:17:59;16.60;53.00
3770;DHT22;1900;48.890;9.190;2023-04-24T05:20:25;16.50;52.80
3770;DHT22;1900;48.890;9.190;2023-04-24T05:22:51;16.50;52.90
3770;DHT22;1900;48.890;9.190;2023-04-24T05:25:18;16.40;52.90
3770;DHT22;1900;48.890;9.190;2023-04-24T05:27:52;16.40;52.90
3770;DHT22;1900;48.890;9.190;2023-04-24T05:30:19;16.40;53.00
3770;DHT22;1900;48.890;9.190;2023-04-24T05:32:45;16.40;53.10
3770;DHT22;1900;48.890;9.190;2023-04-24T05:35:12;16.30;53.00
3770;DHT22;1900;48.890;9.190;2023-04-24T05:37:38;16.30;53.00
3770;DHT22;1900;48.890;9.190;2023-04-24T05:40:04;16.30;53.10
3770;DHT22;1900;48.890;9.190;2023-04-24T05:42:31;16.30;53.10
3770;DHT22;1900;48.890;9.190;2023-04-24T05:44:57;16.30;53.20
3770;DHT22;1900;48.890;9.190;2023-04-24T05:47:22;16.30;53.10
3770;DHT22;1900;48.890;9.190;2023-04-24T05:49:48;16.30;53.00
3770;DHT22;1900;48.890;9.190;2023-04-24T05:52:14;16.30;53.10
3770;DHT22;1900;48.890;9.190;2023-04-24T05:54:41;16.20;53.10
3770;DHT22;1900;48.890;9.190;2023-04-24T05:57:08;16.20;53.10
3770;DHT22;1900;48.890;9.190;2023-04-24T05:59:47;16.20;53.20
3770;DHT22;1900;48.890;9.190;2023-04-24T06:02:14;16.20;53.20
3770;DHT22;1900;48.890;9.190;2023-04-24T06:04:40;16.20;53.20
3770;DHT22;1900;48.890;9.190;2023-04-24T06:07:05;16.20;53.30
3770;DHT22;1900;48.890;9.190;2023-04-24T06:09:32;16.20;53.40
3770;DHT22;1900;48.890;9.190;2023-04-24T06:11:58;16.30;54.10
3770;DHT22;1900;48.890;9.190;2023-04-24T06:14:32;16.30;53.60
3770;DHT22;1900;48.890;9.190;2023-04-24T06:17:15;16.30;53.70
3770;DHT22;1900;48.890;9.190;2023-04-24T06:19:42;16.30;53.70
3770;DHT22;1900;48.890;9.190;2023-04-24T06:22:08;16.30;53.60
3770;DHT22;1900;48.890;9.190;2023-04-24T06:24:34;16.30;53.60
3770;DHT22;1900;48.890;9.190;2023-04-24T06:27:00;16.30;53.60
3770;DHT22;1900;48.890;9.190;2023-04-24T06:29:27;16.40;53.70
3770;DHT22;1900;48.890;9.190;2023-04-24T06:31:53;16.40;53.70
3770;DHT22;1900;48.890;9.190;2023-04-24T06:34:19;16.40;53.70
3770;DHT22;1900;48.890;9.190;2023-04-24T06:36:46;16.40;53.70
3770;DHT22;1900;48.890;9.190;2023-04-24T06:39:12;16.50;53.90
3770;DHT22;1900;48.890;9.190;2023-04-24T06:41:38;16.50;53.90
3770;DHT22;1900;48.890;9.190;2023-04-24T06:44:05;16.50;53.90
3770;DHT22;1900;48.890;9.190;2023-04-24T06:46:31;16.60;54.00
3770;DHT22;1900;48.890;9.190;2023-04-24T06:48:56;16.50;53.90
3770;DHT22;1900;48.890;9.190;2023-04-24T06:51:26;16.60;54.00
3770;DHT22;1900;48.890;9.190;2023-04-24T06:53:53;16.60;54.00
3770;DHT22;1900;48.890;9.190;2023-04-24T06:56:19;16.70;54.10
3770;DHT22;1900;48.890;9.190;2023-04-24T06:58:46;16.70;54.10
3770;DHT22;1900;48.890;9.190;2023-04-24T07:01:11;16.70;54.20
3770;DHT22;1900;48.890;9.190;2023-04-24T07:03:37;16.80;54.40
3770;DHT22;1900;48.890;9.190;2023-04-24T07:06:04;16.80;54.40
3770;DHT22;1900;48.890;9.190;2023-04-24T07:08:30;16.90;54.50
3770;DHT22;1900;48.890;9.190;2023-04-24T07:10:56;16.90;54.60
3770;DHT22;1900;48.890;9.190;2023-04-24T07:13:23;17.00;54.70
3770;DHT22;1900;48.890;9.190;2023-04-24T07:15:49;17.00;54.60
3770;DHT22;1900;48.890;9.190;2023-04-24T07:18:20;17.10;54.60
3770;DHT22;1900;48.890;9.190;2023-04-24T07:20:46;17.10;54.60
3770;DHT22;1900;48.890;9.190;2023-04-24T07:23:12;17.10;54.40
3770;DHT22;1900;48.890;9.190;2023-04-24T07:25:37;17.20;54.40
3770;DHT22;1900;48.890;9.190;2023-04-24T07:28:04;17.20;54.50
3770;DHT22;1900;48.890;9.190;2023-04-24T07:30:30;17.20;54.40
3770;DHT22;1900;48.890;9.190;2023-04-24T07:32:58;17.20;54.30
3770;DHT22;1900;48.890;9.190;2023-04-24T07:35:24;17.20;54.40
3770;DHT22;1900;48.890;9.190;2023-04-24T07:37:53;17.20;54.40
3770;DHT22;1900;48.890;9.190;2023-04-24T07:40:20;17.30;54.50
3770;DHT22;1900;48.890;9.190;2023-04-24T07:42:46;17.30;54.50
3770;DHT22;1900;48.890;9.190;2023-04-24T07:45:14;17.30;54.50
3770;DHT22;1900;48.890;9.190;2023-04-24T07:47:41;17.40;54.60
3770;DHT22;1900;48.890;9.190;2023-04-24T07:50:09;17.40;54.70
3770;DHT22;1900;48.890;9.190;2023-04-24T07:52:35;17.40;54.60
3770;DHT22;1900;48.890;9.190;2023-04-24T07:55:01;17.50;54.30
3770;DHT22;1900;48.890;9.190;2023-04-24T07:57:28;17.40;54.10
3770;DHT22;1900;48.890;9.190;2023-04-24T07:59:54;17.50;54.30
3770;DHT22;1900;48.890;9.190;2023-04-24T08:02:20;17.50;54.40
3770;DHT22;1900;48.890;9.190;2023-04-24T08:04:47;17.50;54.30
3770;DHT22;1900;48.890;9.190;2023-04-24T08:07:12;17.50;54.20
3770;DHT22;1900;48.890;9.190;2023-04-24T08:09:38;17.50;54.20
3770;DHT22;1900;48.890;9.190;2023-04-24T08:12:04;17.50;54.60
3770;DHT22;1900;48.890;9.190;2023-04-24T08:14:30;17.50;53.90
3770;DHT22;1900;48.890;9.190;2023-04-24T08:16:55;17.50;53.70
3770;DHT22;1900;48.890;9.190;2023-04-24T08:19:21;17.40;53.70
3770;DHT22;1900;48.890;9.190;2023-04-24T08:21:47;17.40;53.90
3770;DHT22;1900;48.890;9.190;2023-04-24T08:24:13;17.40;54.00
3770;DHT22;1900;48.890;9.190;2023-04-24T08:26:39;17.50;54.10
3770;DHT22;1900;48.890;9.190;2023-04-24T08:29:05;17.50;54.00
3770;DHT22;1900;48.890;9.190;2023-04-24T08:31:32;17.50;54.00
3770;DHT22;1900;48.890;9.190;2023-04-24T08:33:58;17.50;54.00
3770;DHT22;1900;48.890;9.190;2023-04-24T08:36:25;17.50;54.00
3770;DHT22;1900;48.890;9.190;2023-04-24T08:38:51;17.60;54.10
3770;DHT22;1900;48.890;9.190;2023-04-24T08:41:18;17.60;53.90
3770;DHT22;1900;48.890;9.190;2023-04-24T08:43:46;17.60;53.90
3770;DHT22;1900;48.890;9.190;2023-04-24T08:46:13;17.60;53.80
3770;DHT22;1900;48.890;9.190;2023-04-24T08:48:39;17.70;53.80
3770;DHT22;1900;48.890;9.190;2023-04-24T08:51:09;17.70;53.80
3770;DHT22;1900;48.890;9.190;2023-04-24T08:53:35;17.70;53.90
3770;DHT22;1900;48.890;9.190;2023-04-24T08:56:01;17.80;54.10
3770;DHT22;1900;48.890;9.190;2023-04-24T08:58:28;17.80;54.00
3770;DHT22;1900;48.890;9.190;2023-04-24T09:00:57;17.80;53.90
3770;DHT22;1900;48.890;9.190;2023-04-24T09:03:24;17.90;54.00
3770;DHT22;1900;48.890;9.190;2023-04-24T09:05:50;17.90;54.00
3770;DHT22;1900;48.890;9.190;2023-04-24T09:08:19;18.00;54.10
3770;DHT22;1900;48.890;9.190;2023-04-24T09:10:45;18.00;54.10
3770;DHT22;1900;48.890;9.190;2023-04-24T09:13:11;18.10;54.20
3770;DHT22;1900;48.890;9.190;2023-04-24T09:15:38;18.10;54.20
3770;DHT22;1900;48.890;9.190;2023-04-24T09:18:04;18.10;54.30
3770;DHT22;1900;48.890;9.190;2023-04-24T09:20:30;18.20;54.40
3770;DHT22;1900;48.890;9.190;2023-04-24T09:22:59;18.20;54.40
3770;DHT22;1900;48.890;9.190;2023-04-24T09:25:32;18.30;54.30
3770;DHT22;1900;48.890;9.190;2023-04-24T09:28:07;18.30;54.20
3770;DHT22;1900;48.890;9.190;2023-04-24T09:30:32;18.30;54.20
3770;DHT22;1900;48.890;9.190;2023-04-24T09:33:12;18.30;54.00
3770;DHT22;1900;48.890;9.190;2023-04-24T09:35:41;18.30;53.80
3770;DHT22;1900;48.890;9.190;2023-04-24T09:38:07;18.30;53.80
3770;DHT22;1900;48.890;9.190;2023-04-24T09:40:34;18.30;53.70
3770;DHT22;1900;48.890;9.190;2023-04-24T09:43:00;18.30;53.80
3770;DHT22;1900;48.890;9.190;2023-04-24T09:45:35;18.30;53.80
3770;DHT22;1900;48.890;9.190;2023-04-24T09:48:01;18.30;53.90
3770;DHT22;1900;48.890;9.190;2023-04-24T09:50:30;18.40;54.20
3770;DHT22;1900;48.890;9.190;2023-04-24T09:52:59;18.40;54.20
3770;DHT22;1900;48.890;9.190;2023-04-24T09:55:26;18.50;54.60
3770;DHT22;1900;48.890;9.190;2023-04-24T09:57:54;18.50;53.70
3770;DHT22;1900;48.890;9.190;2023-04-24T10:00:25;18.50;53.40
3770;DHT22;1900;48.890;9.190;2023-04-24T10:02:59;18.40;53.50
3770;DHT22;1900;48.890;9.190;2023-04-24T10:05:33;18.40;53.50
3770;DHT22;1900;48.890;9.190;2023-04-24T10:10:28;18.40;53.50
3770;DHT22;1900;48.890;9.190;2023-04-24T10:12:55;18.40;53.60
3770;DHT22;1900;48.890;9.190;2023-04-24T10:15:21;18.40;53.60
3770;DHT22;1900;48.890;9.190;2023-04-24T10:17:50;18.40;53.60
3770;DHT22;1900;48.890;9.190;2023-04-24T10:20:24;18.50;53.60
3770;DHT22;1900;48.890;9.190;2023-04-24T10:22:52;18.40;53.50
3770;DHT22;1900;48.890;9.190;2023-04-24T10:25:32;18.50;53.50
3770;DHT22;1900;48.890;9.190;2023-04-24T10:27:59;18.50;53.00
3770;DHT22;1900;48.890;9.190;2023-04-24T10:30:27;18.40;52.80
3770;DHT22;1900;48.890;9.190;2023-04-24T10:32:53;18.30;52.90
3770;DHT22;1900;48.890;9.190;2023-04-24T10:35:19;18.30;53.00
3770;DHT22;1900;48.890;9.190;2023-04-24T10:37:56;18.30;53.10
3770;DHT22;1900;48.890;9.190;2023-04-24T10:40:29;18.30;53.00
3770;DHT22;1900;48.890;9.190;2023-04-24T10:42:56;18.30;53.60
3770;DHT22;1900;48.890;9.190;2023-04-24T10:45:23;18.20;52.90
3770;DHT22;1900;48.890;9.190;2023-04-24T10:48:03;18.20;52.80
3770;DHT22;1900;48.890;9.190;2023-04-24T10:50:41;18.20;53.30
3770;DHT22;1900;48.890;9.190;2023-04-24T10:53:12;18.10;52.40
3770;DHT22;1900;48.890;9.190;2023-04-24T10:55:50;18.10;52.40
3770;DHT22;1900;48.890;9.190;2023-04-24T10:58:17;18.10;52.50
3770;DHT22;1900;48.890;9.190;2023-04-24T11:00:58;18.00;52.50
3770;DHT22;1900;48.890;9.190;2023-04-24T11:03:30;18.00;52.50
3770;DHT22;1900;48.890;9.190;2023-04-24T11:06:05;18.00;52.60
3770;DHT22;1900;48.890;9.190;2023-04-24T11:08:48;18.00;52.70
3770;DHT22;1900;48.890;9.190;2023-04-24T11:11:16;18.10;52.90
3770;DHT22;1900;48.890;9.190;2023-04-24T11:18:59;18.10;52.70
3770;DHT22;1900;48.890;9.190;2023-04-24T11:21:28;18.10;52.70
3770;DHT22;1900;48.890;9.190;2023-04-24T11:23:56;18.10;52.90
3770;DHT22;1900;48.890;9.190;2023-04-24T11:26:22;18.20;53.20
3770;DHT22;1900;48.890;9.190;2023-04-24T11:29:06;18.20;53.20
3770;DHT22;1900;48.890;9.190;2023-04-24T11:31:40;18.30;53.40
3770;DHT22;1900;48.890;9.190;2023-04-24T11:34:12;18.40;53.50
3770;DHT22;1900;48.890;9.190;2023-04-24T11:36:40;18.40;53.50
3770;DHT22;1900;48.890;9.190;2023-04-24T11:39:06;18.50;53.60
3770;DHT22;1900;48.890;9.190;2023-04-24T11:41:33;18.60;53.70
3770;DHT22;1900;48.890;9.190;2023-04-24T11:43:59;18.60;53.70
3770;DHT22;1900;48.890;9.190;2023-04-24T11:46:29;18.70;53.70
3770;DHT22;1900;48.890;9.190;2023-04-24T11:48:56;18.70;53.60
3770;DHT22;1900;48.890;9.190;2023-04-24T11:51:23;18.70;53.40
3770;DHT22;1900;48.890;9.190;2023-04-24T11:53:51;18.70;53.30
3770;DHT22;1900;48.890;9.190;2023-04-24T11:56:24;18.70;53.00
3770;DHT22;1900;48.890;9.190;2023-04-24T11:58:52;18.70;52.70
3770;DHT22;1900;48.890;9.190;2023-04-24T12:01:19;18.70;52.80
3770;DHT22;1900;48.890;9.190;2023-04-24T12:03:50;18.70;53.10
3770;DHT22;1900;48.890;9.190;2023-04-24T12:06:18;18.70;53.20
3770;DHT22;1900;48.890;9.190;2023-04-24T12:08:48;18.80;53.30
3770;DHT22;1900;48.890;9.190;2023-04-24T12:11:16;18.70;53.10
3770;DHT22;1900;48.890;9.190;2023-04-24T12:13:43;18.80;53.30
3770;DHT22;1900;48.890;9.190;2023-04-24T12:16:08;18.80;53.10
3770;DHT22;1900;48.890;9.190;2023-04-24T12:18:34;18.80;53.10
3770;DHT22;1900;48.890;9.190;2023-04-24T12:21:20;18.80;53.10
3770;DHT22;1900;48.890;9.190;2023-04-24T12:23:46;18.80;53.00
3770;DHT22;1900;48.890;9.190;2023-04-24T12:26:19;18.80;53.00
3770;DHT22;1900;48.890;9.190;2023-04-24T12:28:47;18.80;53.00
3770;DHT22;1900;48.890;9.190;2023-04-24T12:31:15;18.80;53.00
3770;DHT22;1900;48.890;9.190;2023-04-24T12:33:42;18.80;52.70
3770;DHT22;1900;48.890;9.190;2023-04-24T12:36:10;18.80;52.50
3770;DHT22;1900;48.890;9.190;2023-04-24T12:38:38;18.70;52.20
3770;DHT22;1900;48.890;9.190;2023-04-24T12:41:11;18.60;52.20
3770;DHT22;1900;48.890;9.190;2023-04-24T12:43:37;18.60;52.20
3770;DHT22;1900;48.890;9.190;2023-04-24T12:46:03;18.60;52.00
3770;DHT22;1900;48.890;9.190;2023-04-24T12:48:30;18.50;51.80
3770;DHT22;1900;48.890;9.190;2023-04-24T12:50:59;18.50;51.90
3770;DHT22;1900;48.890;9.190;2023-04-24T12:53:28;18.40;51.90
3770;DHT22;1900;48.890;9.190;2023-04-24T12:55:57;18.40;51.90
3770;DHT22;1900;48.890;9.190;2023-04-24T12:58:23;18.30;51.80
3770;DHT22;1900;48.890;9.190;2023-04-24T13:00:49;18.30;51.80
3770;DHT22;1900;48.890;9.190;2023-04-24T13:03:15;18.30;52.40
3770;DHT22;1900;48.890;9.190;2023-04-24T13:05:42;18.30;51.70
3770;DHT22;1900;48.890;9.190;2023-04-24T13:08:08;18.20;51.70
3770;DHT22;1900;48.890;9.190;2023-04-24T13:10:34;18.20;51.90
3770;DHT22;1900;48.890;9.190;2023-04-24T13:13:00;18.20;52.30
3770;DHT22;1900;48.890;9.190;2023-04-24T13:15:26;18.30;52.70
3770;DHT22;1900;48.890;9.190;2023-04-24T13:17:51;18.40;53.30
3770;DHT22;1900;48.890;9.190;2023-04-24T13:20:18;18.50;53.70
3770;DHT22;1900;48.890;9.190;2023-04-24T13:22:43;18.60;53.60
3770;DHT22;1900;48.890;9.190;2023-04-24T13:25:09;18.70;53.40
3770;DHT22;1900;48.890;9.190;2023-04-24T13:27:37;18.80;53.30
3770;DHT22;1900;48.890;9.190;2023-04-24T13:30:03;18.80;53.10
3770;DHT22;1900;48.890;9.190;2023-04-24T13:32:29;18.90;53.30
3770;DHT22;1900;48.890;9.190;2023-04-24T13:34:55;19.00;53.60
3770;DHT22;1900;48.890;9.190;2023-04-24T13:37:21;19.10;54.00
3770;DHT22;1900;48.890;9.190;2023-04-24T13:39:48;19.20;54.10
3770;DHT22;1900;48.890;9.190;2023-04-24T13:42:13;19.30;54.00
3770;DHT22;1900;48.890;9.190;2023-04-24T13:44:39;19.40;54.10
3770;DHT22;1900;48.890;9.190;2023-04-24T13:47:05;19.60;54.40
3770;DHT22;1900;48.890;9.190;2023-04-24T13:49:31;19.60;53.80
3770;DHT22;1900;48.890;9.190;2023-04-24T13:51:57;19.70;53.80
3770;DHT22;1900;48.890;9.190;2023-04-24T13:54:22;19.70;53.50
3770;DHT22;1900;48.890;9.190;2023-04-24T13:56:51;19.70;53.40
3770;DHT22;1900;48.890;9.190;2023-04-24T13:59:17;19.70;53.40
3770;DHT22;1900;48.890;9.190;2023-04-24T14:01:43;19.70;53.30
3770;DHT22;1900;48.890;9.190;2023-04-24T14:04:10;19.70;53.20
3770;DHT22;1900;48.890;9.190;2023-04-24T14:06:36;19.70;53.20
3770;DHT22;1900;48.890;9.190;2023-04-24T14:09:02;19.70;53.10
3770;DHT22;1900;48.890;9.190;2023-04-24T14:11:28;19.70;53.20
3770;DHT22;1900;48.890;9.190;2023-04-24T14:13:55;19.60;53.20
3770;DHT22;1900;48.890;9.190;2023-04-24T14:16:23;19.70;53.30
3770;DHT22;1900;48.890;9.190;2023-04-24T14:18:50;19.70;53.30
3770;DHT22;1900;48.890;9.190;2023-04-24T14:21:16;19.70;53.00
3770;DHT22;1900;48.890;9.190;2023-04-24T14:23:41;19.70;52.90
3770;DHT22;1900;48.890;9.190;2023-04-24T14:26:07;19.60;52.70
3770;DHT22;1900;48.890;9.190;2023-04-24T14:28:39;19.60;52.70
3770;DHT22;1900;48.890;9.190;2023-04-24T14:31:06;19.60;52.70
3770;DHT22;1900;48.890;9.190;2023-04-24T14:33:31;19.50;52.70
3770;DHT22;1900;48.890;9.190;2023-04-24T14:35:57;19.50;52.70
3770;DHT22;1900;48.890;9.190;2023-04-24T14:38:23;19.50;52.70
3770;DHT22;1900;48.890;9.190;2023-04-24T14:40:48;19.40;52.70
3770;DHT22;1900;48.890;9.190;2023-04-24T14:43:14;19.40;52.70
3770;DHT22;1900;48.890;9.190;2023-04-24T14:45:40;19.40;52.70
3770;DHT22;1900;48.890;9.190;2023-04-24T14:48:07;19.40;52.70
3770;DHT22;1900;48.890;9.190;2023-04-24T14:50:33;19.40;52.70
3770;DHT22;1900;48.890;9.190;2023-04-24T14:52:59;19.40;52.50
3770;DHT22;1900;48.890;9.190;2023-04-24T14:55:25;19.40;52.60
3770;DHT22;1900;48.890;9.190;2023-04-24T14:57:51;19.40;52.70
3770;DHT22;1900;48.890;9.190;2023-04-24T15:00:18;19.40;52.80
3770;DHT22;1900;48.890;9.190;2023-04-24T15:02:44;19.40;52.90
3770;DHT22;1900;48.890;9.190;2023-04-24T15:05:10;19.50;53.10
3770;DHT22;1900;48.890;9.190;2023-04-24T15:07:37;19.50;53.20
3770;DHT22;1900;48.890;9.190;2023-04-24T15:10:03;19.60;53.40
3770;DHT22;1900;48.890;9.190;2023-04-24T15:12:29;19.70;53.50
3770;DHT22;1900;48.890;9.190;2023-04-24T15:14:55;19.70;53.40
3770;DHT22;1900;48.890;9.190;2023-04-24T15:17:21;19.80;53.40
3770;DHT22;1900;48.890;9.190;2023-04-24T15:19:46;19.80;53.30
3770;DHT22;1900;48.890;9.190;2023-04-24T15:22:12;19.80;53.10
3770;DHT22;1900;48.890;9.190;2023-04-24T15:24:38;19.80;53.00
3770;DHT22;1900;48.890;9.190;2023-04-24T15:27:04;19.80;53.00
3770;DHT22;1900;48.890;9.190;2023-04-24T15:29:29;19.80;53.00
3770;DHT22;1900;48.890;9.190;2023-04-24T15:31:55;19.80;52.90
3770;DHT22;1900;48.890;9.190;2023-04-24T15:34:21;19.80;52.70
3770;DHT22;1900;48.890;9.190;2023-04-24T15:36:47;19.70;52.50
3770;DHT22;1900;48.890;9.190;2023-04-24T15:39:12;19.70;52.60
3770;DHT22;1900;48.890;9.190;2023-04-24T15:41:38;19.60;52.40
3770;DHT22;1900;48.890;9.190;2023-04-24T15:44:03;19.60;52.30
3770;DHT22;1900;48.890;9.190;2023-04-24T15:46:29;19.50;52.20
3770;DHT22;1900;48.890;9.190;2023-04-24T15:48:55;19.50;52.30
3770;DHT22;1900;48.890;9.190;2023-04-24T15:51:21;19.50;52.30
3770;DHT22;1900;48.890;9.190;2023-04-24T15:53:46;19.50;52.30
3770;DHT22;1900;48.890;9.190;2023-04-24T15:56:12;19.50;52.20
3770;DHT22;1900;48.890;9.190;2023-04-24T15:58:38;19.40;52.00
3770;DHT22;1900;48.890;9.190;2023-04-24T16:01:04;19.40;52.00
3770;DHT22;1900;48.890;9.190;2023-04-24T16:03:30;19.30;51.90
3770;DHT22;1900;48.890;9.190;2023-04-24T16:05:56;19.30;51.90
3770;DHT22;1900;48.890;9.190;2023-04-24T16:08:22;19.20;51.80
3770;DHT22;1900;48.890;9.190;2023-04-24T16:10:47;19.20;51.80